sensor_id;sensor_type;location;lat;lon;timestamp;temperature;humidity
21928;DHT22;11128;51.096;17.190;2023-03-23T00:00:40;8.90;1.00
21928;DHT22;11128;51.096;17.190;2023-03-23T00:05:45;8.80;1.00
21928;DHT22;11128;51.096;17.190;2023-03-23T00:10:51;9.70;1.00
21928;DHT22;11128;51.096;17.190;2023-03-23T00:15:59;8.70;1.00
21928;DHT22;11128;51.096;17.190;2023-03-23T00:21:04;8.70;1.00
21928;DHT22;11128;51.096;17.190;2023-03-23T00:26:06;8.60;1.00
21928;DHT22;11128;51.096;17.190;2023-03-23T00:31:09;8.60;99.90
21928;DHT22;11128;51.096;17.190;2023-03-23T00:36:11;8.50;99.90
21928;DHT22;11128;51.096;17.190;2023-03-23T00:41:13;8.50;1.00
21928;DHT22;11128;51.096;17.190;2023-03-23T00:46:16;8.60;1.00
21928;DHT22;11128;51.096;17.190;2023-03-23T00:51:18;8.70;1.00
21928;DHT22;11128;51.096;17.190;2023-03-23T00:56:19;8.80;1.00
21928;DHT22;11128;51.096;17.190;2023-03-23T01:01:21;8.80;1.00
21928;DHT22;11128;51.096;17.190;2023-03-23T01:06:22;8.90;1.00
21928;DHT22;11128;51.096;17.190;2023-03-23T01:11:24;8.90;91.30
21928;DHT22;11128;51.096;17.190;2023-03-23T01:16:26;8.90;1.00
21928;DHT22;11128;51.096;17.190;2023-03-23T01:21:28;9.10;89.40
21928;DHT22;11128;51.096;17.190;2023-03-23T01:26:29;8.90;1.00
21928;DHT22;11128;51.096;17.190;2023-03-23T01:31:31;8.80;1.00
21928;DHT22;11128;51.096;17.190;2023-03-23T01:36:32;8.80;1.00
21928;DHT22;11128;51.096;17.190;2023-03-23T01:41:35;8.80;1.00
21928;DHT22;11128;51.096;17.190;2023-03-23T01:46:36;8.70;1.00
21928;DHT22;11128;51.096;17.190;2023-03-23T01:51:42;8.60;99.90
21928;DHT22;11128;51.096;17.190;2023-03-23T01:56:52;8.60;99.90
21928;DHT22;11128;51.096;17.190;2023-03-23T02:01:56;8.60;1.00
21928;DHT22;11128;51.096;17.190;2023-03-23T02:06:57;8.70;1.00
21928;DHT22;11128;51.096;17.190;2023-03-23T02:11:59;8.70;1.00
21928;DHT22;11128;51.096;17.190;2023-03-23T02:17:15;7.40;1.00
21928;DHT22;11128;51.096;17.190;2023-03-23T02:22:41;8.80;1.00
21928;DHT22;11128;51.096;17.190;2023-03-23T02:33:29;9.10;1.00
21928;DHT22;11128;51.096;17.190;2023-03-23T02:38:38;9.10;1.00
21928;DHT22;11128;51.096;17.190;2023-03-23T02:43:44;9.20;99.90
21928;DHT22;11128;51.096;17.190;2023-03-23T02:48:48;9.20;99.90
21928;DHT22;11128;51.096;17.190;2023-03-23T02:53:53;9.30;1.00
21928;DHT22;11128;51.096;17.190;2023-03-23T02:58:56;9.50;1.00
21928;DHT22;11128;51.096;17.190;2023-03-23T03:03:58;9.50;1.00
21928;DHT22;11128;51.096;17.190;2023-03-23T03:09:26;9.60;99.90
21928;DHT22;11128;51.096;17.190;2023-03-23T03:14:41;9.60;99.90
21928;DHT22;11128;51.096;17.190;2023-03-23T03:19:49;9.70;99.90
21928;DHT22;11128;51.096;17.190;2023-03-23T03:24:52;9.70;99.90
21928;DHT22;11128;51.096;17.190;2023-03-23T03:29:59;9.80;1.00
21928;DHT22;11128;51.096;17.190;2023-03-23T03:35:03;9.80;1.00
21928;DHT22;11128;51.096;17.190;2023-03-23T03:40:07;9.90;1.00
21928;DHT22;11128;51.096;17.190;2023-03-23T03:45:16;10.00;99.90
21928;DHT22;11128;51.096;17.190;2023-03-23T03:50:18;10.00;99.90
21928;DHT22;11128;51.096;17.190;2023-03-23T03:55:20;10.10;1.00
21928;DHT22;11128;51.096;17.190;2023-03-23T04:00:21;10.20;1.00
21928;DHT22;11128;51.096;17.190;2023-03-23T04:05:23;10.20;1.00
21928;DHT22;11128;51.096;17.190;2023-03-23T04:10:25;10.30;1.00
21928;DHT22;11128;51.096;17.190;2023-03-23T04:15:27;10.30;1.00
21928;DHT22;11128;51.096;17.190;2023-03-23T04:20:28;10.40;1.00
21928;DHT22;11128;51.096;17.190;2023-03-23T04:25:30;10.50;99.90
21928;DHT22;11128;51.096;17.190;2023-03-23T04:30:33;10.50;99.90
21928;DHT22;11128;51.096;17.190;2023-03-23T04:35:35;10.40;99.90
21928;DHT22;11128;51.096;17.190;2023-03-23T04:40:37;10.40;99.90
21928;DHT22;11128;51.096;17.190;2023-03-23T04:45:40;10.40;99.90
21928;DHT22;11128;51.096;17.190;2023-03-23T04:50:43;10.40;99.90
21928;DHT22;11128;51.096;17.190;2023-03-23T04:55:46;10.60;99.90
21928;DHT22;11128;51.096;17.190;2023-03-23T05:00:50;10.90;32.40
21928;DHT22;11128;51.096;17.190;2023-03-23T05:05:51;10.80;1.00
21928;DHT22;11128;51.096;17.190;2023-03-23T05:10:57;10.90;1.00
21928;DHT22;11128;51.096;17.190;2023-03-23T05:16:04;11.00;1.00
21928;DHT22;11128;51.096;17.190;2023-03-23T05:21:05;11.00;1.00
21928;DHT22;11128;51.096;17.190;2023-03-23T05:26:07;11.00;1.00
21928;DHT22;11128;51.096;17.190;2023-03-23T05:31:08;11.10;1.00
21928;DHT22;11128;51.096;17.190;2023-03-23T05:36:10;11.20;1.00
21928;DHT22;11128;51.096;17.190;2023-03-23T05:41:14;11.20;1.00
21928;DHT22;11128;51.096;17.190;2023-03-23T05:46:16;11.30;1.00
21928;DHT22;11128;51.096;17.190;2023-03-23T05:51:17;11.40;1.00
21928;DHT22;11128;51.096;17.190;2023-03-23T05:56:19;11.50;1.00
21928;DHT22;11128;51.096;17.190;2023-03-23T06:01:21;11.60;1.00
21928;DHT22;11128;51.096;17.190;2023-03-23T06:06:22;11.70;1.00
21928;DHT22;11128;51.096;17.190;2023-03-23T06:11:26;11.80;1.00
21928;DHT22;11128;51.096;17.190;2023-03-23T06:16:28;11.80;1.00
21928;DHT22;11128;51.096;17.190;2023-03-23T06:21:32;11.90;1.00
21928;DHT22;11128;51.096;17.190;2023-03-23T06:26:36;11.90;1.00
21928;DHT22;11128;51.096;17.190;2023-03-23T06:31:41;12.10;99.90
21928;DHT22;11128;51.096;17.190;2023-03-23T06:36:44;12.40;99.90
21928;DHT22;11128;51.096;17.190;2023-03-23T06:41:46;12.60;99.90
21928;DHT22;11128;51.096;17.190;2023-03-23T06:46:47;12.80;99.90
21928;DHT22;11128;51.096;17.190;2023-03-23T06:51:52;10.90;99.90
21928;DHT22;11128;51.096;17.190;2023-03-23T06:56:53;13.30;99.90
21928;DHT22;11128;51.096;17.190;2023-03-23T07:01:55;13.50;99.90
21928;DHT22;11128;51.096;17.190;2023-03-23T07:06:58;13.60;99.90
21928;DHT22;11128;51.096;17.190;2023-03-23T07:12:05;13.90;99.90
21928;DHT22;11128;51.096;17.190;2023-03-23T07:17:07;13.90;99.90
21928;DHT22;11128;51.096;17.190;2023-03-23T07:22:09;14.10;49.00
21928;DHT22;11128;51.096;17.190;2023-03-23T07:27:12;14.40;31.50
21928;DHT22;11128;51.096;17.190;2023-03-23T07:32:14;12.70;1.00
21928;DHT22;11128;51.096;17.190;2023-03-23T07:37:16;14.80;1.00
21928;DHT22;11128;51.096;17.190;2023-03-23T07:42:18;14.80;1.00
21928;DHT22;11128;51.096;17.190;2023-03-23T07:47:19;14.80;1.00
21928;DHT22;11128;51.096;17.190;2023-03-23T07:52:21;14.70;1.00
21928;DHT22;11128;51.096;17.190;2023-03-23T07:57:23;14.70;28.70
21928;DHT22;11128;51.096;17.190;2023-03-23T08:02:27;14.70;21.60
21928;DHT22;11128;51.096;17.190;2023-03-23T08:07:29;15.20;1.00
21928;DHT22;11128;51.096;17.190;2023-03-23T08:12:30;15.40;1.00
21928;DHT22;11128;51.096;17.190;2023-03-23T08:17:33;15.30;1.00
21928;DHT22;11128;51.096;17.190;2023-03-23T08:22:40;15.20;1.00
21928;DHT22;11128;51.096;17.190;2023-03-23T08:27:42;15.20;1.00
21928;DHT22;11128;51.096;17.190;2023-03-23T08:32:45;15.20;1.00
21928;DHT22;11128;51.096;17.190;2023-03-23T08:37:46;15.40;1.00
21928;DHT22;11128;51.096;17.190;2023-03-23T08:42:52;15.60;1.00
21928;DHT22;11128;51.096;17.190;2023-03-23T08:47:55;16.00;1.00
21928;DHT22;11128;51.096;17.190;2023-03-23T08:52:57;16.80;1.00
21928;DHT22;11128;51.096;17.190;2023-03-23T08:57:59;17.40;1.00
21928;DHT22;11128;51.096;17.190;2023-03-23T09:03:01;17.20;1.00
21928;DHT22;11128;51.096;17.190;2023-03-23T09:08:03;17.10;1.00
21928;DHT22;11128;51.096;17.190;2023-03-23T09:13:05;17.70;1.00
21928;DHT22;11128;51.096;17.190;2023-03-23T09:18:07;18.00;1.00
21928;DHT22;11128;51.096;17.190;2023-03-23T09:23:09;17.40;1.00
21928;DHT22;11128;51.096;17.190;2023-03-23T09:28:10;17.10;1.00
21928;DHT22;11128;51.096;17.190;2023-03-23T09:33:12;17.10;1.00
21928;DHT22;11128;51.096;17.190;2023-03-23T09:38:13;17.60;1.00
21928;DHT22;11128;51.096;17.190;2023-03-23T09:48:53;16.80;1.00
21928;DHT22;11128;51.096;17.190;2023-03-23T09:54:00;17.10;1.00
21928;DHT22;11128;51.096;17.190;2023-03-23T09:59:08;17.40;1.00
21928;DHT22;11128;51.096;17.190;2023-03-23T10:04:33;18.20;1.00
21928;DHT22;11128;51.096;17.190;2023-03-23T10:09:42;18.20;1.00
21928;DHT22;11128;51.096;17.190;2023-03-23T10:14:59;17.90;1.00
21928;DHT22;11128;51.096;17.190;2023-03-23T10:25:21;17.70;1.00
21928;DHT22;11128;51.096;17.190;2023-03-23T10:30:31;18.00;1.00
21928;DHT22;11128;51.096;17.190;2023-03-23T10:35:55;18.10;1.00
21928;DHT22;11128;51.096;17.190;2023-03-23T10:41:01;19.00;1.00
21928;DHT22;11128;51.096;17.190;2023-03-23T10:51:40;19.20;1.00
21928;DHT22;11128;51.096;17.190;2023-03-23T10:56:44;18.60;1.00
21928;DHT22;11128;51.096;17.190;2023-03-23T11:01:51;18.10;1.00
21928;DHT22;11128;51.096;17.190;2023-03-23T11:06:58;17.80;1.00
21928;DHT22;11128;51.096;17.190;2023-03-23T11:12:00;17.80;1.00
21928;DHT22;11128;51.096;17.190;2023-03-23T11:17:04;17.80;1.00
21928;DHT22;11128;51.096;17.190;2023-03-23T11:22:15;18.00;1.00
21928;DHT22;11128;51.096;17.190;2023-03-23T11:27:19;18.10;1.00
21928;DHT22;11128;51.096;17.190;2023-03-23T11:32:26;18.10;1.00
21928;DHT22;11128;51.096;17.190;2023-03-23T11:37:41;18.20;1.00
21928;DHT22;11128;51.096;17.190;2023-03-23T11:42:56;18.20;1.00
21928;DHT22;11128;51.096;17.190;2023-03-23T11:48:17;18.20;1.00
21928;DHT22;11128;51.096;17.190;2023-03-23T11:58:40;18.10;1.00
21928;DHT22;11128;51.096;17.190;2023-03-23T12:15:05;17.90;1.00
21928;DHT22;11128;51.096;17.190;2023-03-23T12:36:23;17.50;1.00
21928;DHT22;11128;51.096;17.190;2023-03-23T12:41:34;17.70;1.00
21928;DHT22;11128;51.096;17.190;2023-03-23T12:46:59;17.60;1.00
21928;DHT22;11128;51.096;17.190;2023-03-23T12:52:19;17.60;1.00
21928;DHT22;11128;51.096;17.190;2023-03-23T13:03:02;17.70;1.00
21928;DHT22;11128;51.096;17.190;2023-03-23T13:08:18;17.80;1.00
21928;DHT22;11128;51.096;17.190;2023-03-23T13:13:25;17.60;1.00
21928;DHT22;11128;51.096;17.190;2023-03-23T13:18:53;17.50;1.00
21928;DHT22;11128;51.096;17.190;2023-03-23T13:24:00;17.50;1.00
21928;DHT22;11128;51.096;17.190;2023-03-23T13:29:21;17.50;1.00
21928;DHT22;11128;51.096;17.190;2023-03-23T13:34:26;17.50;1.00
21928;DHT22;11128;51.096;17.190;2023-03-23T13:39:36;17.40;1.00
21928;DHT22;11128;51.096;17.190;2023-03-23T14:00:47;18.10;1.00
21928;DHT22;11128;51.096;17.190;2023-03-23T14:06:15;19.30;1.00
21928;DHT22;11128;51.096;17.190;2023-03-23T14:11:29;17.70;1.00
21928;DHT22;11128;51.096;17.190;2023-03-23T14:21:48;17.60;1.00
21928;DHT22;11128;51.096;17.190;2023-03-23T14:27:09;17.50;1.00
21928;DHT22;11128;51.096;17.190;2023-03-23T14:32:20;17.50;1.00
21928;DHT22;11128;51.096;17.190;2023-03-23T14:37:27;17.50;1.00
21928;DHT22;11128;51.096;17.190;2023-03-23T14:42:31;17.40;1.00
21928;DHT22;11128;51.096;17.190;2023-03-23T14:47:50;17.80;1.00
21928;DHT22;11128;51.096;17.190;2023-03-23T14:52:52;17.20;1.00
21928;DHT22;11128;51.096;17.190;2023-03-23T14:57:53;18.90;1.00
21928;DHT22;11128;51.096;17.190;2023-03-23T15:02:56;18.80;1.00
21928;DHT22;11128;51.096;17.190;2023-03-23T15:08:07;18.40;1.00
21928;DHT22;11128;51.096;17.190;2023-03-23T15:13:16;18.20;1.00
21928;DHT22;11128;51.096;17.190;2023-03-23T15:23:55;17.90;1.00
21928;DHT22;11128;51.096;17.190;2023-03-23T15:29:18;17.70;1.00
21928;DHT22;11128;51.096;17.190;2023-03-23T15:39:39;17.40;1.00
21928;DHT22;11128;51.096;17.190;2023-03-23T15:44:41;19.10;1.00
21928;DHT22;11128;51.096;17.190;2023-03-23T15:49:44;17.80;1.00
21928;DHT22;11128;51.096;17.190;2023-03-23T15:54:47;17.60;1.00
21928;DHT22;11128;51.096;17.190;2023-03-23T15:59:48;17.40;1.00
21928;DHT22;11128;51.096;17.190;2023-03-23T16:04:50;17.20;1.00
21928;DHT22;11128;51.096;17.190;2023-03-23T16:09:52;17.10;1.00
21928;DHT22;11128;51.096;17.190;2023-03-23T16:14:53;17.00;1.00
21928;DHT22;11128;51.096;17.190;2023-03-23T16:19:54;17.00;1.00
21928;DHT22;11128;51.096;17.190;2023-03-23T16:24:56;16.90;1.00
21928;DHT22;11128;51.096;17.190;2023-03-23T16:30:01;16.90;1.00
21928;DHT22;11128;51.096;17.190;2023-03-23T16:35:04;17.50;1.00
21928;DHT22;11128;51.096;17.190;2023-03-23T16:40:05;16.60;1.00
21928;DHT22;11128;51.096;17.190;2023-03-23T16:45:09;16.50;1.00
21928;DHT22;11128;51.096;17.190;2023-03-23T16:50:13;16.50;1.00
21928;DHT22;11128;51.096;17.190;2023-03-23T16:55:15;16.40;1.00
21928;DHT22;11128;51.096;17.190;2023-03-23T17:00:18;16.40;1.00
21928;DHT22;11128;51.096;17.190;2023-03-23T17:05:21;16.30;1.00
21928;DHT22;11128;51.096;17.190;2023-03-23T17:10:24;16.20;1.00
21928;DHT22;11128;51.096;17.190;2023-03-23T17:15:28;16.10;1.00
21928;DHT22;11128;51.096;17.190;2023-03-23T17:20:29;16.00;25.60
21928;DHT22;11128;51.096;17.190;2023-03-23T17:25:31;15.90;54.00
21928;DHT22;11128;51.096;17.190;2023-03-23T17:30:33;15.90;64.90
21928;DHT22;11128;51.096;17.190;2023-03-23T17:35:35;15.80;34.30
21928;DHT22;11128;51.096;17.190;2023-03-23T17:40:38;17.30;57.70
21928;DHT22;11128;51.096;17.190;2023-03-23T17:45:40;15.70;29.10
21928;DHT22;11128;51.096;17.190;2023-03-23T17:50:45;15.80;1.90
21928;DHT22;11128;51.096;17.190;2023-03-23T17:55:47;15.80;18.80
21928;DHT22;11128;51.096;17.190;2023-03-23T18:00:48;15.70;60.00
21928;DHT22;11128;51.096;17.190;2023-03-23T18:06:19;15.60;88.60
21928;DHT22;11128;51.096;17.190;2023-03-23T18:11:29;15.60;91.50
21928;DHT22;11128;51.096;17.190;2023-03-23T18:16:31;15.60;99.90
21928;DHT22;11128;51.096;17.190;2023-03-23T18:21:34;15.40;99.90
21928;DHT22;11128;51.096;17.190;2023-03-23T18:26:35;15.40;99.90
21928;DHT22;11128;51.096;17.190;2023-03-23T18:31:38;15.30;99.90
21928;DHT22;11128;51.096;17.190;2023-03-23T18:36:40;15.30;99.90
21928;DHT22;11128;51.096;17.190;2023-03-23T18:41:41;15.20;99.90
21928;DHT22;11128;51.096;17.190;2023-03-23T18:46:42;15.20;99.90
21928;DHT22;11128;51.096;17.190;2023-03-23T18:51:43;15.10;99.90
21928;DHT22;11128;51.096;17.190;2023-03-23T18:56:45;15.10;99.90
21928;DHT22;11128;51.096;17.190;2023-03-23T19:01:46;15.00;99.90
21928;DHT22;11128;51.096;17.190;2023-03-23T19:06:49;15.00;99.90
21928;DHT22;11128;51.096;17.190;2023-03-23T19:11:51;15.00;99.90
21928;DHT22;11128;51.096;17.190;2023-03-23T19:16:52;14.80;99.90
21928;DHT22;11128;51.096;17.190;2023-03-23T19:21:53;14.70;1.00
21928;DHT22;11128;51.096;17.190;2023-03-23T19:26:56;14.70;99.90
21928;DHT22;11128;51.096;17.190;2023-03-23T19:31:58;14.60;1.00
21928;DHT22;11128;51.096;17.190;2023-03-23T19:36:59;14.60;1.00
21928;DHT22;11128;51.096;17.190;2023-03-23T19:42:00;14.50;1.00
21928;DHT22;11128;51.096;17.190;2023-03-23T19:47:02;14.50;1.00
21928;DHT22;11128;51.096;17.190;2023-03-23T19:52:04;14.40;1.00
21928;DHT22;11128;51.096;17.190;2023-03-23T19:57:06;14.40;1.00
21928;DHT22;11128;51.096;17.190;2023-03-23T20:02:11;14.40;1.00
21928;DHT22;11128;51.096;17.190;2023-03-23T20:07:12;14.30;1.00
21928;DHT22;11128;51.096;17.190;2023-03-23T20:12:13;14.30;1.00
21928;DHT22;11128;51.096;17.190;2023-03-23T20:17:15;14.20;1.00
21928;DHT22;11128;51.096;17.190;2023-03-23T20:22:16;14.20;1.00
21928;DHT22;11128;51.096;17.190;2023-03-23T20:27:18;14.10;1.00
21928;DHT22;11128;51.096;17.190;2023-03-23T20:32:20;14.10;1.00
21928;DHT22;11128;51.096;17.190;2023-03-23T20:37:21;14.10;1.00
21928;DHT22;11128;51.096;17.190;2023-03-23T20:42:24;13.90;1.00
21928;DHT22;11128;51.096;17.190;2023-03-23T20:47:26;14.00;1.00
21928;DHT22;11128;51.096;17.190;2023-03-23T20:52:28;14.00;1.00
21928;DHT22;11128;51.096;17.190;2023-03-23T20:57:29;13.90;1.00
21928;DHT22;11128;51.096;17.190;2023-03-23T21:02:31;13.80;1.00
21928;DHT22;11128;51.096;17.190;2023-03-23T21:07:35;13.70;1.00
21928;DHT22;11128;51.096;17.190;2023-03-23T21:12:37;13.20;1.00
21928;DHT22;11128;51.096;17.190;2023-03-23T21:17:38;13.70;1.00
21928;DHT22;11128;51.096;17.190;2023-03-23T21:22:40;13.70;1.00
21928;DHT22;11128;51.096;17.190;2023-03-23T21:27:42;13.70;1.00
21928;DHT22;11128;51.096;17.190;2023-03-23T21:32:44;13.60;1.00
21928;DHT22;11128;51.096;17.190;2023-03-23T21:37:52;13.50;1.00
21928;DHT22;11128;51.096;17.190;2023-03-23T21:42:53;15.50;96.10
21928;DHT22;11128;51.096;17.190;2023-03-23T21:47:55;13.20;99.90
21928;DHT22;11128;51.096;17.190;2023-03-23T21:52:56;13.10;99.90
21928;DHT22;11128;51.096;17.190;2023-03-23T21:57:58;13.10;99.90
21928;DHT22;11128;51.096;17.190;2023-03-23T22:03:00;12.90;99.90
21928;DHT22;11128;51.096;17.190;2023-03-23T22:08:02;12.80;1.00
21928;DHT22;11128;51.096;17.190;2023-03-23T22:13:04;12.70;1.00
21928;DHT22;11128;51.096;17.190;2023-03-23T22:18:07;12.70;1.00
21928;DHT22;11128;51.096;17.190;2023-03-23T22:23:08;12.60;1.00
21928;DHT22;11128;51.096;17.190;2023-03-23T22:28:10;12.70;1.00
21928;DHT22;11128;51.096;17.190;2023-03-23T22:33:11;12.80;99.90
21928;DHT22;11128;51.096;17.190;2023-03-23T22:38:14;12.80;99.90
21928;DHT22;11128;51.096;17.190;2023-03-23T22:43:15;12.70;99.90
21928;DHT22;11128;51.096;17.190;2023-03-23T22:48:20;12.60;1.00
21928;DHT22;11128;51.096;17.190;2023-03-23T22:53:27;12.40;1.00
21928;DHT22;11128;51.096;17.190;2023-03-23T22:58:28;12.20;1.00
21928;DHT22;11128;51.096;17.190;2023-03-23T23:03:30;12.00;1.00
21928;DHT22;11128;51.096;17.190;2023-03-23T23:08:33;11.90;99.90
21928;DHT22;11128;51.096;17.190;2023-03-23T23:13:34;11.90;99.90
21928;DHT22;11128;51.096;17.190;2023-03-23T23:18:36;11.90;99.90
21928;DHT22;11128;51.096;17.190;2023-03-23T23:23:38;11.90;99.90
21928;DHT22;11128;51.096;17.190;2023-03-23T23:28:40;12.00;99.90
21928;DHT22;11128;51.096;17.190;2023-03-23T23:33:41;12.00;1.00
21928;DHT22;11128;51.096;17.190;2023-03-23T23:38:43;12.00;1.00
21928;DHT22;11128;51.096;17.190;2023-03-23T23:43:45;12.00;99.90
21928;DHT22;11128;51.096;17.190;2023-03-23T23:48:46;12.10;1.00
21928;DHT22;11128;51.096;17.190;2023-03-23T23:53:47;12.10;99.90
21928;DHT22;11128;51.096;17.190;2023-03-23T23:58:53;12.20;1.00
